DHSAG EDFB-EDFB
Flight info
| Callsign | DHSAG |
|---|---|
| Flight time | N/A |
| Altitude | 3500 |
| Route | DCT |
| Aircraft | R66/L-VGD/A |
Departure
| Time | 2026-04-20 09:20 |
|---|---|
| Airport | Reichelsheim Airfield (EDFB) |
Arrival
| Time | N/A |
|---|---|
| Airport | Reichelsheim Airfield (EDFB) |
| Time | Latitude | Longitude | Altitude | Speed | Heading |
|---|---|---|---|---|---|
| 2026-04-20 09:20 | 50.26433 | 8.66631 | 616 ft | 0 kts | 313° |
| 2026-04-20 09:20 | 50.26441 | 8.66617 | 677 ft | 7 kts | 342° |
| 2026-04-20 09:20 | 50.26578 | 8.66562 | 1087 ft | 36 kts | 353° |
| 2026-04-20 09:20 | 50.26828 | 8.66524 | 1100 ft | 71 kts | 349° |
| 2026-04-20 09:21 | 50.27030 | 8.66011 | 1560 ft | 67 kts | 274° |
| 2026-04-20 09:21 | 50.26632 | 8.65484 | 1840 ft | 92 kts | 183° |
| 2026-04-20 09:21 | 50.25903 | 8.65618 | 1633 ft | 113 kts | 171° |
| 2026-04-20 09:21 | 50.25140 | 8.65741 | 1670 ft | 110 kts | 176° |
| 2026-04-20 09:22 | 50.24377 | 8.65767 | 1690 ft | 107 kts | 186° |
| 2026-04-20 09:22 | 50.23724 | 8.65286 | 1682 ft | 102 kts | 219° |
| 2026-04-20 09:22 | 50.23195 | 8.64622 | 1693 ft | 95 kts | 228° |
| 2026-04-20 09:22 | 50.22719 | 8.63888 | 1594 ft | 98 kts | 229° |
| 2026-04-20 09:23 | 50.22258 | 8.63168 | 1558 ft | 85 kts | 230° |
| 2026-04-20 09:23 | 50.21858 | 8.62604 | 1325 ft | 69 kts | 221° |
| 2026-04-20 09:23 | 50.21556 | 8.62235 | 1129 ft | 37 kts | 225° |
| 2026-04-20 09:23 | 50.21367 | 8.62072 | 1070 ft | 25 kts | 229° |
| 2026-04-20 09:24 | 50.21316 | 8.62019 | 987 ft | 4 kts | 225° |
| 2026-04-20 09:24 | 50.21264 | 8.61956 | 884 ft | 9 kts | 206° |
| 2026-04-20 09:24 | 50.21258 | 8.61967 | 773 ft | 2 kts | 242° |
| 2026-04-20 09:24 | 50.21249 | 8.61933 | 668 ft | 3 kts | 243° |
| 2026-04-20 09:25 | 50.21244 | 8.61921 | 641 ft | 0 kts | 237° |
| 2026-04-20 09:33 | 50.21247 | 8.61923 | 821 ft | 1 kts | 283° |
| 2026-04-20 09:34 | 50.21172 | 8.61627 | 1112 ft | 71 kts | 234° |
| 2026-04-20 09:34 | 50.20613 | 8.61337 | 1264 ft | 94 kts | 195° |
| 2026-04-20 09:34 | 50.19181 | 8.60765 | 1368 ft | 113 kts | 193° |
| 2026-04-20 09:35 | 50.18402 | 8.60465 | 1397 ft | 116 kts | 194° |
| 2026-04-20 09:35 | 50.17636 | 8.60087 | 1471 ft | 115 kts | 197° |
| 2026-04-20 09:35 | 50.16870 | 8.59775 | 1612 ft | 115 kts | 193° |
| 2026-04-20 09:35 | 50.16069 | 8.59469 | 1730 ft | 118 kts | 198° |
| 2026-04-20 09:36 | 50.15264 | 8.59209 | 1714 ft | 122 kts | 192° |
| 2026-04-20 09:36 | 50.14411 | 8.59010 | 1488 ft | 124 kts | 185° |
| 2026-04-20 09:36 | 50.13555 | 8.58908 | 1235 ft | 122 kts | 178° |
| 2026-04-20 09:36 | 50.12758 | 8.59008 | 1167 ft | 107 kts | 165° |
| 2026-04-20 09:37 | 50.12046 | 8.59303 | 1089 ft | 103 kts | 162° |
| 2026-04-20 09:37 | 50.11370 | 8.59541 | 1157 ft | 99 kts | 165° |
| 2026-04-20 09:37 | 50.10684 | 8.59706 | 1194 ft | 100 kts | 172° |
| 2026-04-20 09:37 | 50.09964 | 8.59757 | 1125 ft | 114 kts | 178° |
| 2026-04-20 09:38 | 50.09201 | 8.59763 | 1159 ft | 107 kts | 182° |
| 2026-04-20 09:38 | 50.08491 | 8.59428 | 1126 ft | 105 kts | 208° |
| 2026-04-20 09:38 | 50.07871 | 8.58825 | 1095 ft | 107 kts | 213° |
| 2026-04-20 09:38 | 50.07250 | 8.58186 | 1072 ft | 106 kts | 214° |
| 2026-04-20 09:39 | 50.06655 | 8.57572 | 1079 ft | 99 kts | 213° |
| 2026-04-20 09:39 | 50.06098 | 8.57008 | 1120 ft | 92 kts | 218° |
| 2026-04-20 09:39 | 50.05552 | 8.56498 | 1125 ft | 94 kts | 202° |
| 2026-04-20 09:39 | 50.04934 | 8.56339 | 1227 ft | 93 kts | 180° |
| 2026-04-20 09:40 | 50.04263 | 8.56503 | 1184 ft | 100 kts | 163° |
| 2026-04-20 09:40 | 50.03573 | 8.56726 | 1185 ft | 102 kts | 165° |
| 2026-04-20 09:40 | 50.02904 | 8.56880 | 1227 ft | 97 kts | 176° |
| 2026-04-20 09:40 | 50.02284 | 8.57131 | 1295 ft | 98 kts | 145° |
| 2026-04-20 09:41 | 50.01846 | 8.57935 | 1169 ft | 103 kts | 118° |
| 2026-04-20 09:41 | 50.01441 | 8.58824 | 1083 ft | 99 kts | 124° |
| 2026-04-20 09:41 | 50.00907 | 8.59466 | 1047 ft | 93 kts | 152° |
| 2026-04-20 09:41 | 50.00282 | 8.59693 | 1074 ft | 90 kts | 165° |
| 2026-04-20 09:42 | 49.99689 | 8.59907 | 1168 ft | 87 kts | 169° |
| 2026-04-20 09:42 | 49.99087 | 8.60023 | 1184 ft | 85 kts | 165° |
| 2026-04-20 09:42 | 49.98506 | 8.60141 | 1184 ft | 88 kts | 171° |
| 2026-04-20 09:42 | 49.97892 | 8.60280 | 1226 ft | 88 kts | 156° |
| 2026-04-20 09:43 | 49.97555 | 8.60934 | 1314 ft | 75 kts | 96° |
| 2026-04-20 09:43 | 49.97524 | 8.61776 | 1329 ft | 85 kts | 85° |
| 2026-04-20 09:43 | 49.97510 | 8.62767 | 1260 ft | 96 kts | 81° |
| 2026-04-20 09:43 | 49.97512 | 8.63811 | 1288 ft | 94 kts | 84° |
| 2026-04-20 09:44 | 49.97502 | 8.64842 | 1274 ft | 97 kts | 84° |
| 2026-04-20 09:44 | 49.97516 | 8.65882 | 1342 ft | 95 kts | 80° |
| 2026-04-20 09:44 | 49.97525 | 8.66908 | 1367 ft | 98 kts | 80° |
| 2026-04-20 09:44 | 49.97344 | 8.67907 | 1419 ft | 104 kts | 115° |
| 2026-04-20 09:45 | 49.96958 | 8.68864 | 1392 ft | 103 kts | 126° |
| 2026-04-20 09:45 | 49.96312 | 8.69079 | 1398 ft | 92 kts | 206° |
| 2026-04-20 09:45 | 49.96119 | 8.68280 | 1177 ft | 84 kts | 285° |
| 2026-04-20 09:45 | 49.96228 | 8.67429 | 1065 ft | 76 kts | 276° |
| 2026-04-20 09:46 | 49.96259 | 8.66646 | 896 ft | 75 kts | 261° |
| 2026-04-20 09:46 | 49.96179 | 8.65847 | 638 ft | 73 kts | 258° |
| 2026-04-20 09:46 | 49.96128 | 8.65108 | 459 ft | 64 kts | 252° |
| 2026-04-20 09:46 | 49.96115 | 8.64763 | 407 ft | 8 kts | 336° |
| 2026-04-20 09:47 | 49.96168 | 8.64754 | 411 ft | 12 kts | 28° |
| 2026-04-20 09:47 | 49.96226 | 8.64754 | 390 ft | 2 kts | 359° |
| 2026-04-20 09:47 | 49.96227 | 8.64754 | 390 ft | 0 kts | 358° |